sensor_id;sensor_type;location;lat;lon;timestamp;P1;durP1;ratioP1;P2;durP2;ratioP2
74674;SDS011;63200;48.810;12.352;2024-03-08T00:01:52;37.00;;;14.57;;
74674;SDS011;63200;48.810;12.352;2024-03-08T00:04:18;38.27;;;16.10;;
74674;SDS011;63200;48.810;12.352;2024-03-08T00:06:43;33.97;;;13.87;;
74674;SDS011;63200;48.810;12.352;2024-03-08T00:09:10;33.07;;;14.53;;
74674;SDS011;63200;48.810;12.352;2024-03-08T00:11:36;38.43;;;15.97;;
74674;SDS011;63200;48.810;12.352;2024-03-08T00:14:02;38.03;;;16.07;;
74674;SDS011;63200;48.810;12.352;2024-03-08T00:16:27;42.33;;;16.50;;
74674;SDS011;63200;48.810;12.352;2024-03-08T00:18:52;44.13;;;17.83;;
74674;SDS011;63200;48.810;12.352;2024-03-08T00:21:17;38.83;;;15.73;;
74674;SDS011;63200;48.810;12.352;2024-03-08T00:23:43;50.00;;;17.90;;
74674;SDS011;63200;48.810;12.352;2024-03-08T00:26:08;47.77;;;17.77;;
74674;SDS011;63200;48.810;12.352;2024-03-08T00:28:34;47.53;;;17.93;;
74674;SDS011;63200;48.810;12.352;2024-03-08T00:31:00;38.83;;;16.13;;
74674;SDS011;63200;48.810;12.352;2024-03-08T00:33:25;41.33;;;16.43;;
74674;SDS011;63200;48.810;12.352;2024-03-08T00:35:52;44.20;;;17.17;;
74674;SDS011;63200;48.810;12.352;2024-03-08T00:38:18;36.40;;;16.23;;
74674;SDS011;63200;48.810;12.352;2024-03-08T00:40:43;36.93;;;16.37;;
74674;SDS011;63200;48.810;12.352;2024-03-08T00:43:09;36.33;;;16.20;;
74674;SDS011;63200;48.810;12.352;2024-03-08T00:45:34;38.57;;;16.33;;
74674;SDS011;63200;48.810;12.352;2024-03-08T00:47:59;39.17;;;17.07;;
74674;SDS011;63200;48.810;12.352;2024-03-08T00:50:25;49.10;;;18.20;;
74674;SDS011;63200;48.810;12.352;2024-03-08T00:52:50;44.63;;;18.43;;
74674;SDS011;63200;48.810;12.352;2024-03-08T00:55:16;60.57;;;22.27;;
74674;SDS011;63200;48.810;12.352;2024-03-08T00:57:41;46.07;;;19.17;;
74674;SDS011;63200;48.810;12.352;2024-03-08T01:00:07;38.50;;;16.17;;
74674;SDS011;63200;48.810;12.352;2024-03-08T01:02:36;38.27;;;15.80;;
74674;SDS011;63200;48.810;12.352;2024-03-08T01:05:02;35.60;;;14.93;;
74674;SDS011;63200;48.810;12.352;2024-03-08T01:07:29;31.67;;;13.57;;
74674;SDS011;63200;48.810;12.352;2024-03-08T01:09:54;31.73;;;11.83;;
74674;SDS011;63200;48.810;12.352;2024-03-08T01:12:19;29.03;;;12.67;;
74674;SDS011;63200;48.810;12.352;2024-03-08T01:14:45;31.73;;;13.83;;
74674;SDS011;63200;48.810;12.352;2024-03-08T01:17:10;33.13;;;14.00;;
74674;SDS011;63200;48.810;12.352;2024-03-08T01:19:36;34.27;;;13.33;;
74674;SDS011;63200;48.810;12.352;2024-03-08T01:22:02;33.07;;;13.63;;
74674;SDS011;63200;48.810;12.352;2024-03-08T01:24:28;52.83;;;20.00;;
74674;SDS011;63200;48.810;12.352;2024-03-08T01:26:54;39.00;;;15.50;;
74674;SDS011;63200;48.810;12.352;2024-03-08T01:29:19;45.87;;;17.67;;
74674;SDS011;63200;48.810;12.352;2024-03-08T01:31:44;60.30;;;20.07;;
74674;SDS011;63200;48.810;12.352;2024-03-08T01:34:10;61.53;;;23.97;;
74674;SDS011;63200;48.810;12.352;2024-03-08T01:36:35;51.33;;;20.63;;
74674;SDS011;63200;48.810;12.352;2024-03-08T01:39:02;50.77;;;22.13;;
74674;SDS011;63200;48.810;12.352;2024-03-08T01:41:32;55.73;;;20.60;;
74674;SDS011;63200;48.810;12.352;2024-03-08T01:43:58;51.10;;;21.93;;
74674;SDS011;63200;48.810;12.352;2024-03-08T01:46:24;60.53;;;20.90;;
74674;SDS011;63200;48.810;12.352;2024-03-08T01:48:49;48.97;;;19.37;;
74674;SDS011;63200;48.810;12.352;2024-03-08T01:51:15;54.60;;;21.33;;
74674;SDS011;63200;48.810;12.352;2024-03-08T01:53:41;44.67;;;18.93;;
74674;SDS011;63200;48.810;12.352;2024-03-08T01:56:10;45.67;;;17.27;;
74674;SDS011;63200;48.810;12.352;2024-03-08T01:58:37;48.47;;;18.90;;
74674;SDS011;63200;48.810;12.352;2024-03-08T02:01:03;47.77;;;18.17;;
74674;SDS011;63200;48.810;12.352;2024-03-08T02:03:30;53.63;;;19.30;;
74674;SDS011;63200;48.810;12.352;2024-03-08T02:05:56;48.70;;;19.53;;
74674;SDS011;63200;48.810;12.352;2024-03-08T02:08:24;47.37;;;18.30;;
74674;SDS011;63200;48.810;12.352;2024-03-08T02:10:50;48.03;;;18.20;;
74674;SDS011;63200;48.810;12.352;2024-03-08T02:13:16;43.53;;;18.23;;
74674;SDS011;63200;48.810;12.352;2024-03-08T02:15:54;46.43;;;18.57;;
74674;SDS011;63200;48.810;12.352;2024-03-08T02:18:20;53.17;;;19.67;;
74674;SDS011;63200;48.810;12.352;2024-03-08T02:20:56;56.83;;;19.77;;
74674;SDS011;63200;48.810;12.352;2024-03-08T02:23:23;42.23;;;19.03;;
74674;SDS011;63200;48.810;12.352;2024-03-08T02:25:49;46.07;;;17.17;;
74674;SDS011;63200;48.810;12.352;2024-03-08T02:28:15;48.73;;;18.27;;
74674;SDS011;63200;48.810;12.352;2024-03-08T02:30:43;44.93;;;19.13;;
74674;SDS011;63200;48.810;12.352;2024-03-08T02:33:12;49.77;;;20.30;;
74674;SDS011;63200;48.810;12.352;2024-03-08T02:35:41;46.07;;;19.17;;
74674;SDS011;63200;48.810;12.352;2024-03-08T02:38:07;43.40;;;19.50;;
74674;SDS011;63200;48.810;12.352;2024-03-08T02:40:33;49.23;;;20.90;;
74674;SDS011;63200;48.810;12.352;2024-03-08T02:42:58;51.67;;;20.73;;
74674;SDS011;63200;48.810;12.352;2024-03-08T02:45:23;52.80;;;21.07;;
74674;SDS011;63200;48.810;12.352;2024-03-08T02:47:49;53.40;;;21.43;;
74674;SDS011;63200;48.810;12.352;2024-03-08T02:50:16;49.73;;;20.60;;
74674;SDS011;63200;48.810;12.352;2024-03-08T02:52:44;53.87;;;21.33;;
74674;SDS011;63200;48.810;12.352;2024-03-08T02:55:11;59.97;;;22.77;;
74674;SDS011;63200;48.810;12.352;2024-03-08T02:57:40;57.30;;;22.97;;
74674;SDS011;63200;48.810;12.352;2024-03-08T03:00:05;55.33;;;22.83;;
74674;SDS011;63200;48.810;12.352;2024-03-08T03:02:34;55.80;;;22.00;;
74674;SDS011;63200;48.810;12.352;2024-03-08T03:04:59;54.20;;;22.17;;
74674;SDS011;63200;48.810;12.352;2024-03-08T03:07:29;56.60;;;20.73;;
74674;SDS011;63200;48.810;12.352;2024-03-08T03:09:55;58.37;;;21.43;;
74674;SDS011;63200;48.810;12.352;2024-03-08T03:12:20;53.73;;;21.07;;
74674;SDS011;63200;48.810;12.352;2024-03-08T03:14:45;51.63;;;19.63;;
74674;SDS011;63200;48.810;12.352;2024-03-08T03:17:10;77.80;;;28.43;;
74674;SDS011;63200;48.810;12.352;2024-03-08T03:19:36;65.23;;;25.00;;
74674;SDS011;63200;48.810;12.352;2024-03-08T03:22:01;52.00;;;21.87;;
74674;SDS011;63200;48.810;12.352;2024-03-08T03:24:27;58.30;;;23.13;;
74674;SDS011;63200;48.810;12.352;2024-03-08T03:26:54;52.97;;;21.53;;
74674;SDS011;63200;48.810;12.352;2024-03-08T03:29:20;57.60;;;22.93;;
74674;SDS011;63200;48.810;12.352;2024-03-08T03:31:45;60.63;;;24.33;;
74674;SDS011;63200;48.810;12.352;2024-03-08T03:34:11;54.67;;;22.77;;
74674;SDS011;63200;48.810;12.352;2024-03-08T03:36:37;52.20;;;19.90;;
74674;SDS011;63200;48.810;12.352;2024-03-08T03:39:03;56.30;;;22.23;;
74674;SDS011;63200;48.810;12.352;2024-03-08T03:41:37;60.73;;;22.27;;
74674;SDS011;63200;48.810;12.352;2024-03-08T03:44:03;54.50;;;20.93;;
74674;SDS011;63200;48.810;12.352;2024-03-08T03:46:30;51.10;;;21.40;;
74674;SDS011;63200;48.810;12.352;2024-03-08T03:48:55;52.70;;;20.57;;
74674;SDS011;63200;48.810;12.352;2024-03-08T03:51:21;46.20;;;18.83;;
74674;SDS011;63200;48.810;12.352;2024-03-08T03:53:46;44.63;;;19.23;;
74674;SDS011;63200;48.810;12.352;2024-03-08T03:56:12;48.23;;;20.07;;
74674;SDS011;63200;48.810;12.352;2024-03-08T03:58:37;53.70;;;21.67;;
74674;SDS011;63200;48.810;12.352;2024-03-08T04:01:04;49.93;;;20.93;;
74674;SDS011;63200;48.810;12.352;2024-03-08T04:03:29;50.67;;;22.40;;
74674;SDS011;63200;48.810;12.352;2024-03-08T04:05:55;63.87;;;22.57;;
74674;SDS011;63200;48.810;12.352;2024-03-08T04:08:20;55.33;;;21.90;;
74674;SDS011;63200;48.810;12.352;2024-03-08T04:10:45;52.80;;;21.47;;
74674;SDS011;63200;48.810;12.352;2024-03-08T04:13:11;46.50;;;20.87;;
74674;SDS011;63200;48.810;12.352;2024-03-08T04:15:36;48.93;;;21.10;;
74674;SDS011;63200;48.810;12.352;2024-03-08T04:18:02;46.73;;;19.23;;
74674;SDS011;63200;48.810;12.352;2024-03-08T04:20:28;44.60;;;18.37;;
74674;SDS011;63200;48.810;12.352;2024-03-08T04:22:53;40.40;;;16.83;;
74674;SDS011;63200;48.810;12.352;2024-03-08T04:25:19;40.03;;;18.03;;
74674;SDS011;63200;48.810;12.352;2024-03-08T04:27:45;42.10;;;17.50;;
74674;SDS011;63200;48.810;12.352;2024-03-08T04:30:12;37.73;;;16.63;;
74674;SDS011;63200;48.810;12.352;2024-03-08T04:32:37;38.83;;;17.13;;
74674;SDS011;63200;48.810;12.352;2024-03-08T04:35:03;44.23;;;18.27;;
74674;SDS011;63200;48.810;12.352;2024-03-08T04:37:28;36.87;;;16.60;;
74674;SDS011;63200;48.810;12.352;2024-03-08T04:39:57;34.20;;;15.83;;
74674;SDS011;63200;48.810;12.352;2024-03-08T04:42:23;42.57;;;17.67;;
74674;SDS011;63200;48.810;12.352;2024-03-08T04:44:50;39.77;;;16.90;;
74674;SDS011;63200;48.810;12.352;2024-03-08T04:47:15;43.00;;;17.77;;
74674;SDS011;63200;48.810;12.352;2024-03-08T04:49:42;41.07;;;18.37;;
74674;SDS011;63200;48.810;12.352;2024-03-08T04:52:08;44.53;;;17.93;;
74674;SDS011;63200;48.810;12.352;2024-03-08T04:54:33;38.57;;;17.13;;
74674;SDS011;63200;48.810;12.352;2024-03-08T04:56:59;39.90;;;16.97;;
74674;SDS011;63200;48.810;12.352;2024-03-08T04:59:25;35.37;;;14.80;;
74674;SDS011;63200;48.810;12.352;2024-03-08T05:01:51;35.63;;;15.47;;
74674;SDS011;63200;48.810;12.352;2024-03-08T05:04:16;36.00;;;15.90;;
74674;SDS011;63200;48.810;12.352;2024-03-08T05:06:42;37.60;;;15.07;;
74674;SDS011;63200;48.810;12.352;2024-03-08T05:09:07;43.50;;;18.07;;
74674;SDS011;63200;48.810;12.352;2024-03-08T05:11:45;45.43;;;18.90;;
74674;SDS011;63200;48.810;12.352;2024-03-08T05:14:11;49.27;;;19.50;;
74674;SDS011;63200;48.810;12.352;2024-03-08T05:16:45;42.57;;;17.60;;
74674;SDS011;63200;48.810;12.352;2024-03-08T05:19:17;39.83;;;17.67;;
74674;SDS011;63200;48.810;12.352;2024-03-08T05:21:46;37.63;;;16.63;;
74674;SDS011;63200;48.810;12.352;2024-03-08T05:24:13;35.33;;;16.10;;
74674;SDS011;63200;48.810;12.352;2024-03-08T05:26:39;39.87;;;16.10;;
74674;SDS011;63200;48.810;12.352;2024-03-08T05:29:04;36.23;;;15.27;;
74674;SDS011;63200;48.810;12.352;2024-03-08T05:31:31;41.63;;;15.77;;
74674;SDS011;63200;48.810;12.352;2024-03-08T05:34:03;37.03;;;16.80;;
74674;SDS011;63200;48.810;12.352;2024-03-08T05:36:28;39.23;;;16.87;;
74674;SDS011;63200;48.810;12.352;2024-03-08T05:38:54;54.63;;;21.87;;
74674;SDS011;63200;48.810;12.352;2024-03-08T05:41:19;57.60;;;22.73;;
74674;SDS011;63200;48.810;12.352;2024-03-08T05:43:45;54.97;;;22.00;;
74674;SDS011;63200;48.810;12.352;2024-03-08T05:46:10;56.97;;;21.80;;
74674;SDS011;63200;48.810;12.352;2024-03-08T05:48:36;55.13;;;21.87;;
74674;SDS011;63200;48.810;12.352;2024-03-08T05:51:02;46.10;;;19.00;;
74674;SDS011;63200;48.810;12.352;2024-03-08T05:53:28;43.30;;;18.30;;
74674;SDS011;63200;48.810;12.352;2024-03-08T05:55:56;45.87;;;19.43;;
74674;SDS011;63200;48.810;12.352;2024-03-08T05:58:22;44.90;;;19.87;;
74674;SDS011;63200;48.810;12.352;2024-03-08T06:00:47;45.80;;;18.20;;
74674;SDS011;63200;48.810;12.352;2024-03-08T06:03:13;44.60;;;18.80;;
74674;SDS011;63200;48.810;12.352;2024-03-08T06:05:38;46.70;;;20.17;;
74674;SDS011;63200;48.810;12.352;2024-03-08T06:08:06;41.30;;;17.67;;
74674;SDS011;63200;48.810;12.352;2024-03-08T06:10:32;46.37;;;19.07;;
74674;SDS011;63200;48.810;12.352;2024-03-08T06:12:58;43.73;;;17.27;;
74674;SDS011;63200;48.810;12.352;2024-03-08T06:15:23;44.03;;;18.97;;
74674;SDS011;63200;48.810;12.352;2024-03-08T06:17:48;42.30;;;18.83;;
74674;SDS011;63200;48.810;12.352;2024-03-08T06:20:14;36.23;;;15.77;;
74674;SDS011;63200;48.810;12.352;2024-03-08T06:22:39;34.73;;;15.27;;
74674;SDS011;63200;48.810;12.352;2024-03-08T06:25:10;35.33;;;16.47;;
74674;SDS011;63200;48.810;12.352;2024-03-08T06:27:39;40.23;;;15.50;;
74674;SDS011;63200;48.810;12.352;2024-03-08T06:30:05;32.43;;;15.00;;
74674;SDS011;63200;48.810;12.352;2024-03-08T06:32:31;33.08;;;14.98;;
74674;SDS011;63200;48.810;12.352;2024-03-08T06:35:00;32.63;;;14.50;;
74674;SDS011;63200;48.810;12.352;2024-03-08T06:37:26;48.28;;;21.90;;
74674;SDS011;63200;48.810;12.352;2024-03-08T06:39:51;50.67;;;22.92;;
74674;SDS011;63200;48.810;12.352;2024-03-08T06:42:19;30.83;;;14.63;;
74674;SDS011;63200;48.810;12.352;2024-03-08T06:44:44;34.65;;;15.85;;
74674;SDS011;63200;48.810;12.352;2024-03-08T06:47:15;46.10;;;19.77;;
74674;SDS011;63200;48.810;12.352;2024-03-08T06:49:41;32.88;;;15.93;;
74674;SDS011;63200;48.810;12.352;2024-03-08T06:52:09;32.42;;;15.07;;
74674;SDS011;63200;48.810;12.352;2024-03-08T06:54:35;30.98;;;14.77;;
74674;SDS011;63200;48.810;12.352;2024-03-08T06:57:01;33.53;;;16.02;;
74674;SDS011;63200;48.810;12.352;2024-03-08T06:59:28;31.35;;;15.38;;
74674;SDS011;63200;48.810;12.352;2024-03-08T07:01:53;33.13;;;16.33;;
74674;SDS011;63200;48.810;12.352;2024-03-08T07:04:19;42.75;;;20.45;;
74674;SDS011;63200;48.810;12.352;2024-03-08T07:06:45;55.67;;;24.88;;
74674;SDS011;63200;48.810;12.352;2024-03-08T07:09:10;55.15;;;23.17;;
74674;SDS011;63200;48.810;12.352;2024-03-08T07:11:36;54.17;;;23.50;;
74674;SDS011;63200;48.810;12.352;2024-03-08T07:14:02;43.83;;;20.67;;
74674;SDS011;63200;48.810;12.352;2024-03-08T07:16:30;36.92;;;17.80;;
74674;SDS011;63200;48.810;12.352;2024-03-08T07:18:55;35.40;;;17.35;;
74674;SDS011;63200;48.810;12.352;2024-03-08T07:21:22;35.72;;;18.75;;
74674;SDS011;63200;48.810;12.352;2024-03-08T07:23:48;40.90;;;19.17;;
74674;SDS011;63200;48.810;12.352;2024-03-08T07:26:25;39.50;;;19.35;;
74674;SDS011;63200;48.810;12.352;2024-03-08T07:28:50;38.83;;;19.45;;
74674;SDS011;63200;48.810;12.352;2024-03-08T07:31:16;40.22;;;19.23;;
74674;SDS011;63200;48.810;12.352;2024-03-08T07:34:00;46.47;;;20.67;;
74674;SDS011;63200;48.810;12.352;2024-03-08T07:36:25;45.88;;;21.63;;
74674;SDS011;63200;48.810;12.352;2024-03-08T07:38:50;50.92;;;22.90;;
74674;SDS011;63200;48.810;12.352;2024-03-08T07:41:16;47.15;;;21.80;;
74674;SDS011;63200;48.810;12.352;2024-03-08T07:43:41;55.63;;;23.95;;
74674;SDS011;63200;48.810;12.352;2024-03-08T07:46:07;46.78;;;22.95;;
74674;SDS011;63200;48.810;12.352;2024-03-08T07:48:35;49.80;;;20.90;;
74674;SDS011;63200;48.810;12.352;2024-03-08T07:51:01;50.97;;;23.58;;
74674;SDS011;63200;48.810;12.352;2024-03-08T07:53:28;49.03;;;23.77;;
74674;SDS011;63200;48.810;12.352;2024-03-08T07:55:53;51.50;;;24.80;;
74674;SDS011;63200;48.810;12.352;2024-03-08T07:58:19;55.83;;;25.20;;
74674;SDS011;63200;48.810;12.352;2024-03-08T08:00:44;46.70;;;25.23;;
74674;SDS011;63200;48.810;12.352;2024-03-08T08:03:09;49.17;;;24.77;;
74674;SDS011;63200;48.810;12.352;2024-03-08T08:05:35;54.67;;;25.73;;
74674;SDS011;63200;48.810;12.352;2024-03-08T08:08:02;49.37;;;23.67;;
74674;SDS011;63200;48.810;12.352;2024-03-08T08:10:31;50.80;;;27.50;;
74674;SDS011;63200;48.810;12.352;2024-03-08T08:12:59;53.00;;;25.67;;
74674;SDS011;63200;48.810;12.352;2024-03-08T08:15:24;52.20;;;23.67;;
74674;SDS011;63200;48.810;12.352;2024-03-08T08:17:50;43.93;;;21.83;;
74674;SDS011;63200;48.810;12.352;2024-03-08T08:20:16;45.37;;;23.87;;
74674;SDS011;63200;48.810;12.352;2024-03-08T08:22:43;50.43;;;24.37;;
74674;SDS011;63200;48.810;12.352;2024-03-08T08:25:09;48.10;;;23.07;;
74674;SDS011;63200;48.810;12.352;2024-03-08T08:27:38;47.93;;;25.40;;
74674;SDS011;63200;48.810;12.352;2024-03-08T08:30:10;41.90;;;22.40;;
74674;SDS011;63200;48.810;12.352;2024-03-08T08:32:36;48.00;;;22.97;;
74674;SDS011;63200;48.810;12.352;2024-03-08T08:35:02;41.50;;;22.30;;
74674;SDS011;63200;48.810;12.352;2024-03-08T08:37:29;44.30;;;22.73;;
74674;SDS011;63200;48.810;12.352;2024-03-08T08:39:56;46.00;;;23.43;;
74674;SDS011;63200;48.810;12.352;2024-03-08T08:42:21;46.90;;;23.50;;
74674;SDS011;63200;48.810;12.352;2024-03-08T08:44:46;41.50;;;17.42;;
74674;SDS011;63200;48.810;12.352;2024-03-08T08:47:14;42.60;;;23.13;;
74674;SDS011;63200;48.810;12.352;2024-03-08T08:49:43;43.08;;;22.00;;
74674;SDS011;63200;48.810;12.352;2024-03-08T08:52:09;37.13;;;16.20;;
74674;SDS011;63200;48.810;12.352;2024-03-08T08:54:34;42.22;;;21.13;;
74674;SDS011;63200;48.810;12.352;2024-03-08T08:57:01;40.28;;;19.90;;
74674;SDS011;63200;48.810;12.352;2024-03-08T08:59:32;37.22;;;20.15;;
74674;SDS011;63200;48.810;12.352;2024-03-08T09:01:58;40.00;;;20.52;;
74674;SDS011;63200;48.810;12.352;2024-03-08T09:04:23;41.35;;;19.25;;
74674;SDS011;63200;48.810;12.352;2024-03-08T09:06:48;37.43;;;21.10;;
74674;SDS011;63200;48.810;12.352;2024-03-08T09:09:14;34.33;;;20.85;;
74674;SDS011;63200;48.810;12.352;2024-03-08T09:11:39;32.85;;;18.67;;
74674;SDS011;63200;48.810;12.352;2024-03-08T09:14:08;32.72;;;19.17;;
74674;SDS011;63200;48.810;12.352;2024-03-08T09:16:34;33.28;;;15.43;;
74674;SDS011;63200;48.810;12.352;2024-03-08T09:18:59;37.88;;;19.67;;
74674;SDS011;63200;48.810;12.352;2024-03-08T09:21:24;31.40;;;20.27;;
74674;SDS011;63200;48.810;12.352;2024-03-08T09:23:50;35.50;;;17.55;;
74674;SDS011;63200;48.810;12.352;2024-03-08T09:26:16;33.15;;;20.48;;
74674;SDS011;63200;48.810;12.352;2024-03-08T09:28:41;32.53;;;18.55;;
74674;SDS011;63200;48.810;12.352;2024-03-08T09:31:07;31.10;;;18.00;;
74674;SDS011;63200;48.810;12.352;2024-03-08T09:33:32;33.70;;;20.67;;
74674;SDS011;63200;48.810;12.352;2024-03-08T09:35:57;32.08;;;19.38;;
74674;SDS011;63200;48.810;12.352;2024-03-08T09:38:23;32.85;;;18.50;;
74674;SDS011;63200;48.810;12.352;2024-03-08T09:40:50;28.92;;;19.33;;
74674;SDS011;63200;48.810;12.352;2024-03-08T09:43:15;31.40;;;19.10;;
74674;SDS011;63200;48.810;12.352;2024-03-08T09:45:41;31.13;;;19.75;;
74674;SDS011;63200;48.810;12.352;2024-03-08T09:48:10;28.08;;;17.92;;
74674;SDS011;63200;48.810;12.352;2024-03-08T09:50:39;31.13;;;18.48;;
74674;SDS011;63200;48.810;12.352;2024-03-08T09:53:08;31.27;;;20.35;;
74674;SDS011;63200;48.810;12.352;2024-03-08T09:55:37;29.52;;;17.92;;
74674;SDS011;63200;48.810;12.352;2024-03-08T09:58:07;31.73;;;18.00;;
74674;SDS011;63200;48.810;12.352;2024-03-08T10:00:53;29.65;;;19.52;;
74674;SDS011;63200;48.810;12.352;2024-03-08T10:03:19;27.95;;;17.45;;
74674;SDS011;63200;48.810;12.352;2024-03-08T10:05:45;27.35;;;17.02;;
74674;SDS011;63200;48.810;12.352;2024-03-08T10:08:10;28.75;;;17.52;;
74674;SDS011;63200;48.810;12.352;2024-03-08T10:10:36;27.70;;;15.65;;
74674;SDS011;63200;48.810;12.352;2024-03-08T10:13:02;25.95;;;14.70;;
74674;SDS011;63200;48.810;12.352;2024-03-08T10:15:32;28.20;;;15.25;;
74674;SDS011;63200;48.810;12.352;2024-03-08T10:17:58;26.17;;;17.00;;
74674;SDS011;63200;48.810;12.352;2024-03-08T10:20:23;28.00;;;18.10;;
74674;SDS011;63200;48.810;12.352;2024-03-08T10:22:49;28.08;;;16.13;;
74674;SDS011;63200;48.810;12.352;2024-03-08T10:25:16;23.55;;;16.20;;
74674;SDS011;63200;48.810;12.352;2024-03-08T10:27:42;23.13;;;15.20;;
74674;SDS011;63200;48.810;12.352;2024-03-08T10:30:12;23.42;;;15.90;;
74674;SDS011;63200;48.810;12.352;2024-03-08T10:32:40;24.35;;;15.65;;
74674;SDS011;63200;48.810;12.352;2024-03-08T10:35:06;23.23;;;14.15;;
74674;SDS011;63200;48.810;12.352;2024-03-08T10:37:33;24.42;;;14.27;;
74674;SDS011;63200;48.810;12.352;2024-03-08T10:40:07;19.38;;;12.88;;
74674;SDS011;63200;48.810;12.352;2024-03-08T10:42:41;20.80;;;12.13;;
74674;SDS011;63200;48.810;12.352;2024-03-08T10:50:59;20.17;;;13.20;;
74674;SDS011;63200;48.810;12.352;2024-03-08T10:53:26;22.35;;;13.82;;
74674;SDS011;63200;48.810;12.352;2024-03-08T10:55:53;20.92;;;13.07;;
74674;SDS011;63200;48.810;12.352;2024-03-08T10:58:19;20.55;;;14.23;;
74674;SDS011;63200;48.810;12.352;2024-03-08T11:00:46;20.85;;;12.85;;
74674;SDS011;63200;48.810;12.352;2024-03-08T11:06:04;20.00;;;12.02;;
74674;SDS011;63200;48.810;12.352;2024-03-08T11:08:30;21.33;;;12.88;;
74674;SDS011;63200;48.810;12.352;2024-03-08T11:10:56;19.17;;;13.80;;
74674;SDS011;63200;48.810;12.352;2024-03-08T11:13:37;20.17;;;12.25;;
74674;SDS011;63200;48.810;12.352;2024-03-08T11:16:50;17.48;;;12.27;;
74674;SDS011;63200;48.810;12.352;2024-03-08T11:18:54;20.45;;;13.63;;
74674;SDS011;63200;48.810;12.352;2024-03-08T11:21:19;19.73;;;13.13;;
74674;SDS011;63200;48.810;12.352;2024-03-08T11:24:01;20.65;;;12.45;;
74674;SDS011;63200;48.810;12.352;2024-03-08T11:26:26;22.15;;;11.93;;
74674;SDS011;63200;48.810;12.352;2024-03-08T11:28:52;18.20;;;12.85;;
74674;SDS011;63200;48.810;12.352;2024-03-08T11:31:23;17.98;;;12.27;;
74674;SDS011;63200;48.810;12.352;2024-03-08T11:33:51;17.58;;;10.85;;
74674;SDS011;63200;48.810;12.352;2024-03-08T11:36:22;21.80;;;13.30;;
74674;SDS011;63200;48.810;12.352;2024-03-08T11:38:49;17.65;;;13.20;;
74674;SDS011;63200;48.810;12.352;2024-03-08T11:41:21;19.52;;;12.65;;
74674;SDS011;63200;48.810;12.352;2024-03-08T11:43:48;19.13;;;13.80;;
74674;SDS011;63200;48.810;12.352;2024-03-08T11:46:15;15.63;;;12.20;;
74674;SDS011;63200;48.810;12.352;2024-03-08T11:48:42;17.20;;;12.18;;
74674;SDS011;63200;48.810;12.352;2024-03-08T11:51:09;17.00;;;12.38;;
74674;SDS011;63200;48.810;12.352;2024-03-08T11:53:38;13.90;;;9.82;;
74674;SDS011;63200;48.810;12.352;2024-03-08T11:56:07;18.00;;;11.15;;
74674;SDS011;63200;48.810;12.352;2024-03-08T11:58:34;18.23;;;12.13;;
74674;SDS011;63200;48.810;12.352;2024-03-08T12:01:08;13.50;;;7.97;;
74674;SDS011;63200;48.810;12.352;2024-03-08T12:03:37;14.50;;;10.05;;
74674;SDS011;63200;48.810;12.352;2024-03-08T12:06:03;15.98;;;11.88;;
74674;SDS011;63200;48.810;12.352;2024-03-08T12:08:32;12.55;;;10.35;;
74674;SDS011;63200;48.810;12.352;2024-03-08T12:10:57;13.60;;;10.70;;
74674;SDS011;63200;48.810;12.352;2024-03-08T12:13:32;14.85;;;10.48;;
74674;SDS011;63200;48.810;12.352;2024-03-08T12:15:59;15.32;;;10.63;;
74674;SDS011;63200;48.810;12.352;2024-03-08T12:18:25;14.90;;;10.02;;
74674;SDS011;63200;48.810;12.352;2024-03-08T12:21:03;16.30;;;12.13;;
74674;SDS011;63200;48.810;12.352;2024-03-08T12:23:32;17.50;;;10.32;;
74674;SDS011;63200;48.810;12.352;2024-03-08T12:26:05;13.77;;;9.70;;
74674;SDS011;63200;48.810;12.352;2024-03-08T12:28:38;13.90;;;9.07;;
74674;SDS011;63200;48.810;12.352;2024-03-08T12:31:03;13.38;;;9.73;;
74674;SDS011;63200;48.810;12.352;2024-03-08T12:33:30;12.52;;;9.55;;
74674;SDS011;63200;48.810;12.352;2024-03-08T12:35:55;13.27;;;10.02;;
74674;SDS011;63200;48.810;12.352;2024-03-08T12:38:23;14.52;;;9.77;;
74674;SDS011;63200;48.810;12.352;2024-03-08T12:40:55;13.85;;;9.57;;
74674;SDS011;63200;48.810;12.352;2024-03-08T12:43:23;12.25;;;9.82;;
74674;SDS011;63200;48.810;12.352;2024-03-08T12:45:48;13.15;;;9.48;;
74674;SDS011;63200;48.810;12.352;2024-03-08T12:48:14;13.27;;;9.32;;
74674;SDS011;63200;48.810;12.352;2024-03-08T12:50:40;11.93;;;8.80;;
74674;SDS011;63200;48.810;12.352;2024-03-08T12:53:05;11.23;;;9.02;;
74674;SDS011;63200;48.810;12.352;2024-03-08T12:55:31;16.67;;;9.45;;
74674;SDS011;63200;48.810;12.352;2024-03-08T12:57:57;13.90;;;8.85;;
74674;SDS011;63200;48.810;12.352;2024-03-08T13:00:23;12.63;;;9.38;;
74674;SDS011;63200;48.810;12.352;2024-03-08T13:02:49;12.30;;;8.27;;
74674;SDS011;63200;48.810;12.352;2024-03-08T13:05:16;10.75;;;9.55;;
74674;SDS011;63200;48.810;12.352;2024-03-08T13:07:42;11.32;;;8.73;;
74674;SDS011;63200;48.810;12.352;2024-03-08T13:10:11;10.30;;;6.80;;
74674;SDS011;63200;48.810;12.352;2024-03-08T13:12:40;9.32;;;7.18;;
74674;SDS011;63200;48.810;12.352;2024-03-08T13:15:09;9.02;;;7.28;;
74674;SDS011;63200;48.810;12.352;2024-03-08T13:17:45;8.88;;;6.65;;
74674;SDS011;63200;48.810;12.352;2024-03-08T13:20:11;8.63;;;7.07;;
74674;SDS011;63200;48.810;12.352;2024-03-08T13:22:43;7.97;;;5.75;;
74674;SDS011;63200;48.810;12.352;2024-03-08T13:25:08;8.93;;;6.47;;
74674;SDS011;63200;48.810;12.352;2024-03-08T13:27:38;6.95;;;6.25;;
74674;SDS011;63200;48.810;12.352;2024-03-08T13:30:06;7.32;;;6.22;;
74674;SDS011;63200;48.810;12.352;2024-03-08T13:32:32;7.38;;;5.68;;
74674;SDS011;63200;48.810;12.352;2024-03-08T13:34:57;7.80;;;6.72;;
74674;SDS011;63200;48.810;12.352;2024-03-08T13:37:22;7.32;;;6.53;;
74674;SDS011;63200;48.810;12.352;2024-03-08T13:39:48;10.80;;;7.68;;
74674;SDS011;63200;48.810;12.352;2024-03-08T13:42:13;8.18;;;7.20;;
74674;SDS011;63200;48.810;12.352;2024-03-08T13:44:44;8.63;;;6.72;;
74674;SDS011;63200;48.810;12.352;2024-03-08T13:47:10;8.02;;;7.22;;
74674;SDS011;63200;48.810;12.352;2024-03-08T13:49:36;8.82;;;7.50;;
74674;SDS011;63200;48.810;12.352;2024-03-08T13:52:02;9.02;;;6.70;;
74674;SDS011;63200;48.810;12.352;2024-03-08T13:54:29;11.10;;;7.15;;
74674;SDS011;63200;48.810;12.352;2024-03-08T13:56:56;8.23;;;7.28;;
74674;SDS011;63200;48.810;12.352;2024-03-08T13:59:22;9.25;;;7.10;;
74674;SDS011;63200;48.810;12.352;2024-03-08T14:01:47;9.77;;;7.78;;
74674;SDS011;63200;48.810;12.352;2024-03-08T14:04:13;10.10;;;7.00;;
74674;SDS011;63200;48.810;12.352;2024-03-08T14:06:40;8.52;;;7.20;;
74674;SDS011;63200;48.810;12.352;2024-03-08T14:09:05;7.75;;;6.60;;
74674;SDS011;63200;48.810;12.352;2024-03-08T14:11:32;11.23;;;6.70;;
74674;SDS011;63200;48.810;12.352;2024-03-08T14:13:58;9.50;;;7.40;;
74674;SDS011;63200;48.810;12.352;2024-03-08T14:16:23;7.85;;;5.82;;
74674;SDS011;63200;48.810;12.352;2024-03-08T14:18:48;7.10;;;6.03;;